sensor_id;sensor_type;location;lat;lon;timestamp;P1;durP1;ratioP1;P2;durP2;ratioP2
47715;SDS011;33476;50.984;3.538;2023-05-07T00:01:03;12.15;;;1.90;;
47715;SDS011;33476;50.984;3.538;2023-05-07T00:03:30;9.32;;;1.70;;
47715;SDS011;33476;50.984;3.538;2023-05-07T00:05:56;10.00;;;1.80;;
47715;SDS011;33476;50.984;3.538;2023-05-07T00:08:21;6.32;;;1.88;;
47715;SDS011;33476;50.984;3.538;2023-05-07T00:10:47;6.85;;;1.70;;
47715;SDS011;33476;50.984;3.538;2023-05-07T00:13:12;5.55;;;1.30;;
47715;SDS011;33476;50.984;3.538;2023-05-07T00:15:38;9.77;;;2.53;;
47715;SDS011;33476;50.984;3.538;2023-05-07T00:18:03;9.15;;;1.55;;
47715;SDS011;33476;50.984;3.538;2023-05-07T00:20:29;9.13;;;2.15;;
47715;SDS011;33476;50.984;3.538;2023-05-07T00:22:54;11.35;;;1.58;;
47715;SDS011;33476;50.984;3.538;2023-05-07T00:25:20;5.05;;;1.83;;
47715;SDS011;33476;50.984;3.538;2023-05-07T00:27:45;6.55;;;1.83;;
47715;SDS011;33476;50.984;3.538;2023-05-07T00:30:11;8.80;;;1.55;;
47715;SDS011;33476;50.984;3.538;2023-05-07T00:32:36;6.15;;;1.85;;
47715;SDS011;33476;50.984;3.538;2023-05-07T00:35:03;5.38;;;1.85;;
47715;SDS011;33476;50.984;3.538;2023-05-07T00:37:29;5.38;;;1.92;;
47715;SDS011;33476;50.984;3.538;2023-05-07T00:39:55;7.93;;;1.77;;
47715;SDS011;33476;50.984;3.538;2023-05-07T00:42:20;19.38;;;2.15;;
47715;SDS011;33476;50.984;3.538;2023-05-07T00:44:46;7.18;;;1.85;;
47715;SDS011;33476;50.984;3.538;2023-05-07T00:47:11;5.55;;;1.40;;
47715;SDS011;33476;50.984;3.538;2023-05-07T00:49:38;13.35;;;2.40;;
47715;SDS011;33476;50.984;3.538;2023-05-07T00:52:07;7.38;;;2.47;;
47715;SDS011;33476;50.984;3.538;2023-05-07T00:54:39;7.30;;;1.67;;
47715;SDS011;33476;50.984;3.538;2023-05-07T00:57:05;4.03;;;1.67;;
47715;SDS011;33476;50.984;3.538;2023-05-07T00:59:31;9.50;;;1.92;;
47715;SDS011;33476;50.984;3.538;2023-05-07T01:01:57;5.90;;;1.52;;
47715;SDS011;33476;50.984;3.538;2023-05-07T01:04:23;7.05;;;1.90;;
47715;SDS011;33476;50.984;3.538;2023-05-07T01:06:49;5.70;;;2.05;;
47715;SDS011;33476;50.984;3.538;2023-05-07T01:09:15;5.97;;;2.13;;
47715;SDS011;33476;50.984;3.538;2023-05-07T01:11:41;5.70;;;1.90;;
47715;SDS011;33476;50.984;3.538;2023-05-07T01:14:08;6.65;;;2.20;;
47715;SDS011;33476;50.984;3.538;2023-05-07T01:16:34;6.32;;;2.40;;
47715;SDS011;33476;50.984;3.538;2023-05-07T01:19:01;9.30;;;2.30;;
47715;SDS011;33476;50.984;3.538;2023-05-07T01:21:26;4.07;;;1.88;;
47715;SDS011;33476;50.984;3.538;2023-05-07T01:23:58;5.55;;;2.00;;
47715;SDS011;33476;50.984;3.538;2023-05-07T01:26:24;7.43;;;2.05;;
47715;SDS011;33476;50.984;3.538;2023-05-07T01:28:49;7.85;;;2.17;;
47715;SDS011;33476;50.984;3.538;2023-05-07T01:31:15;8.25;;;2.47;;
47715;SDS011;33476;50.984;3.538;2023-05-07T01:33:42;8.95;;;2.03;;
47715;SDS011;33476;50.984;3.538;2023-05-07T01:36:09;9.95;;;2.28;;
47715;SDS011;33476;50.984;3.538;2023-05-07T01:38:37;9.88;;;2.83;;
47715;SDS011;33476;50.984;3.538;2023-05-07T01:41:03;8.23;;;2.15;;
47715;SDS011;33476;50.984;3.538;2023-05-07T01:43:29;11.00;;;2.35;;
47715;SDS011;33476;50.984;3.538;2023-05-07T01:45:55;6.75;;;2.40;;
47715;SDS011;33476;50.984;3.538;2023-05-07T01:48:22;8.45;;;2.22;;
47715;SDS011;33476;50.984;3.538;2023-05-07T01:50:49;7.55;;;2.35;;
47715;SDS011;33476;50.984;3.538;2023-05-07T01:53:16;6.18;;;1.80;;
47715;SDS011;33476;50.984;3.538;2023-05-07T01:55:41;5.70;;;1.77;;
47715;SDS011;33476;50.984;3.538;2023-05-07T01:58:06;7.95;;;1.67;;
47715;SDS011;33476;50.984;3.538;2023-05-07T02:00:32;9.65;;;2.35;;
47715;SDS011;33476;50.984;3.538;2023-05-07T02:02:57;5.95;;;1.67;;
47715;SDS011;33476;50.984;3.538;2023-05-07T02:05:23;6.15;;;1.90;;
47715;SDS011;33476;50.984;3.538;2023-05-07T02:07:49;6.30;;;1.83;;
47715;SDS011;33476;50.984;3.538;2023-05-07T02:10:14;11.15;;;1.75;;
47715;SDS011;33476;50.984;3.538;2023-05-07T02:12:39;9.15;;;2.00;;
47715;SDS011;33476;50.984;3.538;2023-05-07T02:15:05;7.10;;;1.70;;
47715;SDS011;33476;50.984;3.538;2023-05-07T02:17:31;3.67;;;1.45;;
47715;SDS011;33476;50.984;3.538;2023-05-07T02:19:59;11.75;;;2.50;;
47715;SDS011;33476;50.984;3.538;2023-05-07T02:22:25;5.97;;;1.77;;
47715;SDS011;33476;50.984;3.538;2023-05-07T02:24:50;5.80;;;2.03;;
47715;SDS011;33476;50.984;3.538;2023-05-07T02:27:16;6.05;;;1.77;;
47715;SDS011;33476;50.984;3.538;2023-05-07T02:29:41;7.72;;;1.73;;
47715;SDS011;33476;50.984;3.538;2023-05-07T02:32:06;10.10;;;1.92;;
47715;SDS011;33476;50.984;3.538;2023-05-07T02:34:32;7.75;;;2.55;;
47715;SDS011;33476;50.984;3.538;2023-05-07T02:36:57;5.20;;;1.92;;
47715;SDS011;33476;50.984;3.538;2023-05-07T02:39:23;9.90;;;2.22;;
47715;SDS011;33476;50.984;3.538;2023-05-07T02:41:48;5.53;;;1.70;;
47715;SDS011;33476;50.984;3.538;2023-05-07T02:44:14;11.18;;;1.95;;
47715;SDS011;33476;50.984;3.538;2023-05-07T02:46:39;4.03;;;1.85;;
47715;SDS011;33476;50.984;3.538;2023-05-07T02:49:05;5.82;;;2.13;;
47715;SDS011;33476;50.984;3.538;2023-05-07T02:51:31;10.32;;;1.95;;
47715;SDS011;33476;50.984;3.538;2023-05-07T02:53:56;7.03;;;1.88;;
47715;SDS011;33476;50.984;3.538;2023-05-07T02:56:22;5.88;;;2.00;;
47715;SDS011;33476;50.984;3.538;2023-05-07T02:58:47;14.55;;;1.88;;
47715;SDS011;33476;50.984;3.538;2023-05-07T03:01:12;5.80;;;1.42;;
47715;SDS011;33476;50.984;3.538;2023-05-07T03:03:39;5.10;;;1.88;;
47715;SDS011;33476;50.984;3.538;2023-05-07T03:06:05;6.50;;;2.15;;
47715;SDS011;33476;50.984;3.538;2023-05-07T03:08:31;7.20;;;1.77;;
47715;SDS011;33476;50.984;3.538;2023-05-07T03:10:57;6.07;;;2.03;;
47715;SDS011;33476;50.984;3.538;2023-05-07T03:13:23;5.93;;;2.28;;
47715;SDS011;33476;50.984;3.538;2023-05-07T03:15:48;4.13;;;1.50;;
47715;SDS011;33476;50.984;3.538;2023-05-07T03:18:13;3.53;;;1.70;;
47715;SDS011;33476;50.984;3.538;2023-05-07T03:20:39;8.63;;;1.63;;
47715;SDS011;33476;50.984;3.538;2023-05-07T03:23:04;4.18;;;1.67;;
47715;SDS011;33476;50.984;3.538;2023-05-07T03:25:30;4.40;;;1.60;;
47715;SDS011;33476;50.984;3.538;2023-05-07T03:27:56;4.03;;;1.70;;
47715;SDS011;33476;50.984;3.538;2023-05-07T03:30:22;5.93;;;1.40;;
47715;SDS011;33476;50.984;3.538;2023-05-07T03:32:47;6.22;;;1.83;;
47715;SDS011;33476;50.984;3.538;2023-05-07T03:35:12;4.28;;;1.35;;
47715;SDS011;33476;50.984;3.538;2023-05-07T03:37:38;5.15;;;1.70;;
47715;SDS011;33476;50.984;3.538;2023-05-07T03:40:04;5.10;;;2.00;;
47715;SDS011;33476;50.984;3.538;2023-05-07T03:42:30;6.20;;;1.65;;
47715;SDS011;33476;50.984;3.538;2023-05-07T03:44:56;5.30;;;1.73;;
47715;SDS011;33476;50.984;3.538;2023-05-07T03:47:21;4.97;;;1.55;;
47715;SDS011;33476;50.984;3.538;2023-05-07T03:49:47;3.35;;;1.38;;
47715;SDS011;33476;50.984;3.538;2023-05-07T03:52:13;6.25;;;2.05;;
47715;SDS011;33476;50.984;3.538;2023-05-07T03:54:39;7.00;;;1.60;;
47715;SDS011;33476;50.984;3.538;2023-05-07T03:57:04;7.60;;;1.70;;
47715;SDS011;33476;50.984;3.538;2023-05-07T03:59:30;8.20;;;2.20;;
47715;SDS011;33476;50.984;3.538;2023-05-07T04:01:55;7.03;;;2.10;;
47715;SDS011;33476;50.984;3.538;2023-05-07T04:04:21;4.93;;;1.17;;
47715;SDS011;33476;50.984;3.538;2023-05-07T04:06:46;5.88;;;1.58;;
47715;SDS011;33476;50.984;3.538;2023-05-07T04:09:11;4.60;;;1.52;;
47715;SDS011;33476;50.984;3.538;2023-05-07T04:11:37;5.47;;;1.92;;
47715;SDS011;33476;50.984;3.538;2023-05-07T04:14:05;4.60;;;1.65;;
47715;SDS011;33476;50.984;3.538;2023-05-07T04:16:30;7.65;;;2.28;;
47715;SDS011;33476;50.984;3.538;2023-05-07T04:18:56;7.32;;;1.92;;
47715;SDS011;33476;50.984;3.538;2023-05-07T04:21:21;8.02;;;2.55;;
47715;SDS011;33476;50.984;3.538;2023-05-07T04:23:47;4.63;;;1.88;;
47715;SDS011;33476;50.984;3.538;2023-05-07T04:26:13;7.35;;;1.88;;
47715;SDS011;33476;50.984;3.538;2023-05-07T04:28:39;10.43;;;2.15;;
47715;SDS011;33476;50.984;3.538;2023-05-07T04:31:05;7.38;;;2.15;;
47715;SDS011;33476;50.984;3.538;2023-05-07T04:33:31;9.70;;;2.20;;
47715;SDS011;33476;50.984;3.538;2023-05-07T04:35:57;4.95;;;1.73;;
47715;SDS011;33476;50.984;3.538;2023-05-07T04:38:27;8.00;;;2.10;;
47715;SDS011;33476;50.984;3.538;2023-05-07T04:40:56;5.68;;;1.98;;
47715;SDS011;33476;50.984;3.538;2023-05-07T04:43:22;6.22;;;1.75;;
47715;SDS011;33476;50.984;3.538;2023-05-07T04:45:49;9.38;;;2.03;;
47715;SDS011;33476;50.984;3.538;2023-05-07T04:48:15;8.68;;;2.60;;
47715;SDS011;33476;50.984;3.538;2023-05-07T04:50:44;6.88;;;2.13;;
47715;SDS011;33476;50.984;3.538;2023-05-07T04:53:09;6.72;;;2.30;;
47715;SDS011;33476;50.984;3.538;2023-05-07T04:55:35;3.92;;;1.88;;
47715;SDS011;33476;50.984;3.538;2023-05-07T04:58:00;5.75;;;2.38;;
47715;SDS011;33476;50.984;3.538;2023-05-07T05:00:26;9.88;;;2.10;;
47715;SDS011;33476;50.984;3.538;2023-05-07T05:02:52;5.95;;;2.25;;
47715;SDS011;33476;50.984;3.538;2023-05-07T05:05:17;10.00;;;2.78;;
47715;SDS011;33476;50.984;3.538;2023-05-07T05:07:43;6.70;;;2.05;;
47715;SDS011;33476;50.984;3.538;2023-05-07T05:10:08;13.80;;;2.53;;
47715;SDS011;33476;50.984;3.538;2023-05-07T05:12:34;11.98;;;2.80;;
47715;SDS011;33476;50.984;3.538;2023-05-07T05:14:59;6.78;;;2.13;;
47715;SDS011;33476;50.984;3.538;2023-05-07T05:17:24;6.60;;;2.15;;
47715;SDS011;33476;50.984;3.538;2023-05-07T05:19:50;6.68;;;2.65;;
47715;SDS011;33476;50.984;3.538;2023-05-07T05:22:16;9.38;;;3.20;;
47715;SDS011;33476;50.984;3.538;2023-05-07T05:24:41;7.78;;;2.90;;
47715;SDS011;33476;50.984;3.538;2023-05-07T05:27:06;9.55;;;2.70;;
47715;SDS011;33476;50.984;3.538;2023-05-07T05:29:32;8.45;;;3.08;;
47715;SDS011;33476;50.984;3.538;2023-05-07T05:31:57;5.88;;;2.90;;
47715;SDS011;33476;50.984;3.538;2023-05-07T05:34:23;5.75;;;2.20;;
47715;SDS011;33476;50.984;3.538;2023-05-07T05:36:48;10.35;;;2.63;;
47715;SDS011;33476;50.984;3.538;2023-05-07T05:39:13;4.45;;;2.00;;
47715;SDS011;33476;50.984;3.538;2023-05-07T05:41:39;7.63;;;2.38;;
47715;SDS011;33476;50.984;3.538;2023-05-07T05:44:04;4.97;;;1.90;;
47715;SDS011;33476;50.984;3.538;2023-05-07T05:46:30;5.75;;;1.90;;
47715;SDS011;33476;50.984;3.538;2023-05-07T05:48:55;4.20;;;1.73;;
47715;SDS011;33476;50.984;3.538;2023-05-07T05:51:21;6.30;;;1.90;;
47715;SDS011;33476;50.984;3.538;2023-05-07T05:53:47;8.57;;;2.10;;
47715;SDS011;33476;50.984;3.538;2023-05-07T05:56:12;5.70;;;1.92;;
47715;SDS011;33476;50.984;3.538;2023-05-07T05:58:38;6.50;;;1.67;;
47715;SDS011;33476;50.984;3.538;2023-05-07T06:01:03;15.77;;;1.80;;
47715;SDS011;33476;50.984;3.538;2023-05-07T06:03:30;4.50;;;1.58;;
47715;SDS011;33476;50.984;3.538;2023-05-07T06:05:55;5.07;;;1.83;;
47715;SDS011;33476;50.984;3.538;2023-05-07T06:08:21;6.15;;;1.92;;
47715;SDS011;33476;50.984;3.538;2023-05-07T06:10:46;3.75;;;1.23;;
47715;SDS011;33476;50.984;3.538;2023-05-07T06:13:12;5.57;;;2.13;;
47715;SDS011;33476;50.984;3.538;2023-05-07T06:15:37;5.45;;;1.98;;
47715;SDS011;33476;50.984;3.538;2023-05-07T06:18:02;6.45;;;1.58;;
47715;SDS011;33476;50.984;3.538;2023-05-07T06:20:28;4.40;;;1.45;;
47715;SDS011;33476;50.984;3.538;2023-05-07T06:22:53;2.78;;;1.60;;
47715;SDS011;33476;50.984;3.538;2023-05-07T06:25:18;8.10;;;2.10;;
47715;SDS011;33476;50.984;3.538;2023-05-07T06:27:44;4.18;;;1.60;;
47715;SDS011;33476;50.984;3.538;2023-05-07T06:30:09;6.00;;;1.50;;
47715;SDS011;33476;50.984;3.538;2023-05-07T06:32:36;9.27;;;1.73;;
47715;SDS011;33476;50.984;3.538;2023-05-07T06:35:01;10.10;;;1.48;;
47715;SDS011;33476;50.984;3.538;2023-05-07T06:37:27;4.43;;;1.10;;
47715;SDS011;33476;50.984;3.538;2023-05-07T06:39:52;6.57;;;1.25;;
47715;SDS011;33476;50.984;3.538;2023-05-07T06:42:17;5.47;;;0.77;;
47715;SDS011;33476;50.984;3.538;2023-05-07T06:44:43;2.63;;;0.60;;
47715;SDS011;33476;50.984;3.538;2023-05-07T06:47:08;5.72;;;1.27;;
47715;SDS011;33476;50.984;3.538;2023-05-07T06:49:33;4.50;;;1.17;;
47715;SDS011;33476;50.984;3.538;2023-05-07T06:51:59;4.30;;;0.95;;
47715;SDS011;33476;50.984;3.538;2023-05-07T06:54:25;7.35;;;1.00;;
47715;SDS011;33476;50.984;3.538;2023-05-07T06:56:50;5.22;;;0.88;;
47715;SDS011;33476;50.984;3.538;2023-05-07T06:59:15;3.22;;;0.80;;
47715;SDS011;33476;50.984;3.538;2023-05-07T07:01:41;6.03;;;0.82;;
47715;SDS011;33476;50.984;3.538;2023-05-07T07:04:06;3.45;;;0.90;;
47715;SDS011;33476;50.984;3.538;2023-05-07T07:06:32;2.88;;;0.63;;
47715;SDS011;33476;50.984;3.538;2023-05-07T07:08:58;4.68;;;0.88;;
47715;SDS011;33476;50.984;3.538;2023-05-07T07:11:24;5.93;;;1.23;;
47715;SDS011;33476;50.984;3.538;2023-05-07T07:13:49;4.28;;;0.85;;
47715;SDS011;33476;50.984;3.538;2023-05-07T07:16:15;2.55;;;0.75;;
47715;SDS011;33476;50.984;3.538;2023-05-07T07:18:41;4.55;;;1.05;;
47715;SDS011;33476;50.984;3.538;2023-05-07T07:21:06;4.55;;;0.98;;
47715;SDS011;33476;50.984;3.538;2023-05-07T07:23:32;2.28;;;0.85;;
47715;SDS011;33476;50.984;3.538;2023-05-07T07:25:57;5.05;;;0.80;;
47715;SDS011;33476;50.984;3.538;2023-05-07T07:28:23;4.82;;;0.80;;
47715;SDS011;33476;50.984;3.538;2023-05-07T07:30:48;1.45;;;0.45;;
47715;SDS011;33476;50.984;3.538;2023-05-07T07:33:14;4.75;;;0.70;;
47715;SDS011;33476;50.984;3.538;2023-05-07T07:35:40;4.63;;;1.00;;
47715;SDS011;33476;50.984;3.538;2023-05-07T07:38:05;3.83;;;0.77;;
47715;SDS011;33476;50.984;3.538;2023-05-07T07:40:31;2.55;;;0.70;;
47715;SDS011;33476;50.984;3.538;2023-05-07T07:42:56;5.10;;;1.08;;
47715;SDS011;33476;50.984;3.538;2023-05-07T07:45:22;3.72;;;0.95;;
47715;SDS011;33476;50.984;3.538;2023-05-07T07:47:47;3.33;;;1.05;;
47715;SDS011;33476;50.984;3.538;2023-05-07T07:50:13;8.43;;;0.77;;
47715;SDS011;33476;50.984;3.538;2023-05-07T07:52:38;6.97;;;1.13;;
47715;SDS011;33476;50.984;3.538;2023-05-07T07:55:04;6.10;;;1.10;;
47715;SDS011;33476;50.984;3.538;2023-05-07T07:57:30;4.30;;;0.80;;
47715;SDS011;33476;50.984;3.538;2023-05-07T07:59:55;6.25;;;1.02;;
47715;SDS011;33476;50.984;3.538;2023-05-07T08:02:20;6.10;;;0.77;;
47715;SDS011;33476;50.984;3.538;2023-05-07T08:04:46;3.97;;;0.95;;
47715;SDS011;33476;50.984;3.538;2023-05-07T08:07:11;2.50;;;1.27;;
47715;SDS011;33476;50.984;3.538;2023-05-07T08:09:37;3.28;;;1.17;;
47715;SDS011;33476;50.984;3.538;2023-05-07T08:12:04;3.83;;;1.20;;
47715;SDS011;33476;50.984;3.538;2023-05-07T08:14:30;4.00;;;1.00;;
47715;SDS011;33476;50.984;3.538;2023-05-07T08:16:55;5.82;;;0.95;;
47715;SDS011;33476;50.984;3.538;2023-05-07T08:19:21;6.00;;;1.35;;
47715;SDS011;33476;50.984;3.538;2023-05-07T08:21:47;2.47;;;0.95;;
47715;SDS011;33476;50.984;3.538;2023-05-07T08:24:16;2.88;;;1.33;;
47715;SDS011;33476;50.984;3.538;2023-05-07T08:26:43;3.75;;;1.25;;
47715;SDS011;33476;50.984;3.538;2023-05-07T08:29:09;4.55;;;1.75;;
47715;SDS011;33476;50.984;3.538;2023-05-07T08:31:34;7.32;;;1.83;;
47715;SDS011;33476;50.984;3.538;2023-05-07T08:34:00;9.52;;;1.90;;
47715;SDS011;33476;50.984;3.538;2023-05-07T08:36:25;6.15;;;1.83;;
47715;SDS011;33476;50.984;3.538;2023-05-07T08:38:51;3.20;;;1.52;;
47715;SDS011;33476;50.984;3.538;2023-05-07T08:41:17;5.25;;;1.42;;
47715;SDS011;33476;50.984;3.538;2023-05-07T08:43:44;3.97;;;1.63;;
47715;SDS011;33476;50.984;3.538;2023-05-07T08:46:16;2.85;;;1.52;;
47715;SDS011;33476;50.984;3.538;2023-05-07T08:48:44;6.32;;;1.70;;
47715;SDS011;33476;50.984;3.538;2023-05-07T08:51:12;7.22;;;1.90;;
47715;SDS011;33476;50.984;3.538;2023-05-07T08:53:39;4.50;;;1.30;;
47715;SDS011;33476;50.984;3.538;2023-05-07T08:56:06;6.72;;;1.90;;
47715;SDS011;33476;50.984;3.538;2023-05-07T08:58:33;5.45;;;1.73;;
47715;SDS011;33476;50.984;3.538;2023-05-07T09:00:59;7.22;;;2.03;;
47715;SDS011;33476;50.984;3.538;2023-05-07T09:03:28;3.08;;;1.40;;
47715;SDS011;33476;50.984;3.538;2023-05-07T09:05:53;7.38;;;2.05;;
47715;SDS011;33476;50.984;3.538;2023-05-07T09:08:19;8.07;;;2.08;;
47715;SDS011;33476;50.984;3.538;2023-05-07T09:10:50;6.30;;;1.40;;
47715;SDS011;33476;50.984;3.538;2023-05-07T09:13:15;6.72;;;1.85;;
47715;SDS011;33476;50.984;3.538;2023-05-07T09:15:43;4.57;;;1.80;;
47715;SDS011;33476;50.984;3.538;2023-05-07T09:18:08;3.13;;;1.70;;
47715;SDS011;33476;50.984;3.538;2023-05-07T09:20:33;2.85;;;1.40;;
47715;SDS011;33476;50.984;3.538;2023-05-07T09:23:01;4.13;;;1.60;;
47715;SDS011;33476;50.984;3.538;2023-05-07T09:25:28;2.97;;;1.80;;
47715;SDS011;33476;50.984;3.538;2023-05-07T09:27:54;3.38;;;1.42;;
47715;SDS011;33476;50.984;3.538;2023-05-07T09:30:20;5.38;;;1.77;;
47715;SDS011;33476;50.984;3.538;2023-05-07T09:32:45;4.63;;;1.90;;
47715;SDS011;33476;50.984;3.538;2023-05-07T09:35:14;5.55;;;1.60;;
47715;SDS011;33476;50.984;3.538;2023-05-07T09:40:07;3.75;;;1.27;;
47715;SDS011;33476;50.984;3.538;2023-05-07T09:42:34;4.97;;;1.92;;
47715;SDS011;33476;50.984;3.538;2023-05-07T09:44:59;2.58;;;1.23;;
47715;SDS011;33476;50.984;3.538;2023-05-07T09:47:25;3.85;;;1.45;;
47715;SDS011;33476;50.984;3.538;2023-05-07T09:49:57;6.97;;;1.90;;
47715;SDS011;33476;50.984;3.538;2023-05-07T09:52:26;4.32;;;0.95;;
47715;SDS011;33476;50.984;3.538;2023-05-07T09:54:58;5.95;;;1.40;;
47715;SDS011;33476;50.984;3.538;2023-05-07T09:57:25;6.10;;;1.20;;
47715;SDS011;33476;50.984;3.538;2023-05-07T09:59:51;5.22;;;1.83;;
47715;SDS011;33476;50.984;3.538;2023-05-07T10:02:18;2.28;;;1.00;;
47715;SDS011;33476;50.984;3.538;2023-05-07T10:04:45;6.13;;;1.65;;
47715;SDS011;33476;50.984;3.538;2023-05-07T10:07:11;2.03;;;0.88;;
47715;SDS011;33476;50.984;3.538;2023-05-07T10:09:39;5.43;;;1.17;;
47715;SDS011;33476;50.984;3.538;2023-05-07T10:12:07;5.13;;;1.27;;
47715;SDS011;33476;50.984;3.538;2023-05-07T10:14:32;3.47;;;1.10;;
47715;SDS011;33476;50.984;3.538;2023-05-07T10:16:58;3.55;;;1.02;;
47715;SDS011;33476;50.984;3.538;2023-05-07T10:19:25;2.78;;;0.73;;
47715;SDS011;33476;50.984;3.538;2023-05-07T10:21:54;3.10;;;0.60;;
47715;SDS011;33476;50.984;3.538;2023-05-07T10:26:51;5.50;;;0.98;;
47715;SDS011;33476;50.984;3.538;2023-05-07T10:29:20;5.55;;;0.80;;
47715;SDS011;33476;50.984;3.538;2023-05-07T10:34:36;3.50;;;1.17;;
47715;SDS011;33476;50.984;3.538;2023-05-07T10:37:05;4.03;;;1.63;;
47715;SDS011;33476;50.984;3.538;2023-05-07T10:39:31;4.55;;;0.98;;
47715;SDS011;33476;50.984;3.538;2023-05-07T10:41:57;3.60;;;1.00;;
47715;SDS011;33476;50.984;3.538;2023-05-07T10:44:32;6.95;;;1.42;;
47715;SDS011;33476;50.984;3.538;2023-05-07T10:49:30;3.25;;;1.45;;
47715;SDS011;33476;50.984;3.538;2023-05-07T10:52:18;2.95;;;1.00;;
47715;SDS011;33476;50.984;3.538;2023-05-07T10:54:46;6.00;;;0.90;;
47715;SDS011;33476;50.984;3.538;2023-05-07T11:00:00;4.65;;;1.00;;
47715;SDS011;33476;50.984;3.538;2023-05-07T11:05:26;4.28;;;1.60;;
47715;SDS011;33476;50.984;3.538;2023-05-07T11:10:21;2.30;;;1.52;;
47715;SDS011;33476;50.984;3.538;2023-05-07T11:12:50;3.40;;;1.15;;
47715;SDS011;33476;50.984;3.538;2023-05-07T11:15:33;4.65;;;1.25;;
47715;SDS011;33476;50.984;3.538;2023-05-07T11:17:59;6.32;;;1.23;;
47715;SDS011;33476;50.984;3.538;2023-05-07T11:26:00;2.97;;;1.00;;
47715;SDS011;33476;50.984;3.538;2023-05-07T11:28:28;2.67;;;0.70;;
47715;SDS011;33476;50.984;3.538;2023-05-07T11:30:55;2.85;;;0.73;;
47715;SDS011;33476;50.984;3.538;2023-05-07T11:33:22;2.65;;;0.85;;
47715;SDS011;33476;50.984;3.538;2023-05-07T11:35:47;2.05;;;0.60;;
47715;SDS011;33476;50.984;3.538;2023-05-07T11:38:13;2.88;;;0.85;;
47715;SDS011;33476;50.984;3.538;2023-05-07T11:40:48;2.03;;;0.75;;
47715;SDS011;33476;50.984;3.538;2023-05-07T11:43:17;2.35;;;0.80;;
47715;SDS011;33476;50.984;3.538;2023-05-07T11:45:43;2.22;;;0.57;;
47715;SDS011;33476;50.984;3.538;2023-05-07T11:48:09;2.42;;;0.60;;
47715;SDS011;33476;50.984;3.538;2023-05-07T11:50:35;3.08;;;0.80;;
47715;SDS011;33476;50.984;3.538;2023-05-07T11:53:06;2.50;;;0.63;;
47715;SDS011;33476;50.984;3.538;2023-05-07T11:55:32;3.28;;;0.63;;
47715;SDS011;33476;50.984;3.538;2023-05-07T11:57:58;1.70;;;0.50;;
47715;SDS011;33476;50.984;3.538;2023-05-07T12:00:23;4.03;;;0.40;;
47715;SDS011;33476;50.984;3.538;2023-05-07T12:02:49;1.58;;;0.43;;
47715;SDS011;33476;50.984;3.538;2023-05-07T12:05:14;4.25;;;0.73;;
47715;SDS011;33476;50.984;3.538;2023-05-07T12:07:39;4.10;;;0.50;;
47715;SDS011;33476;50.984;3.538;2023-05-07T12:10:05;1.05;;;0.70;;
47715;SDS011;33476;50.984;3.538;2023-05-07T12:12:37;1.85;;;0.40;;
47715;SDS011;33476;50.984;3.538;2023-05-07T12:15:03;2.20;;;0.82;;
47715;SDS011;33476;50.984;3.538;2023-05-07T12:17:29;2.55;;;0.50;;
47715;SDS011;33476;50.984;3.538;2023-05-07T12:19:55;2.40;;;0.50;;
47715;SDS011;33476;50.984;3.538;2023-05-07T12:22:20;2.08;;;0.95;;
47715;SDS011;33476;50.984;3.538;2023-05-07T12:24:47;2.38;;;0.60;;
47715;SDS011;33476;50.984;3.538;2023-05-07T12:27:13;2.10;;;0.60;;
47715;SDS011;33476;50.984;3.538;2023-05-07T12:29:43;2.13;;;0.55;;
47715;SDS011;33476;50.984;3.538;2023-05-07T12:32:14;1.08;;;0.82;;
47715;SDS011;33476;50.984;3.538;2023-05-07T12:34:40;2.67;;;0.63;;
47715;SDS011;33476;50.984;3.538;2023-05-07T12:37:06;1.35;;;0.63;;
47715;SDS011;33476;50.984;3.538;2023-05-07T12:39:31;3.17;;;0.50;;
47715;SDS011;33476;50.984;3.538;2023-05-07T12:42:00;1.65;;;0.80;;
47715;SDS011;33476;50.984;3.538;2023-05-07T12:44:29;3.38;;;0.88;;
47715;SDS011;33476;50.984;3.538;2023-05-07T12:46:58;1.02;;;0.50;;
47715;SDS011;33476;50.984;3.538;2023-05-07T12:49:26;2.20;;;0.50;;
47715;SDS011;33476;50.984;3.538;2023-05-07T12:51:52;1.42;;;0.57;;
47715;SDS011;33476;50.984;3.538;2023-05-07T12:54:28;1.55;;;0.70;;
47715;SDS011;33476;50.984;3.538;2023-05-07T12:57:01;17.77;;;8.15;;
47715;SDS011;33476;50.984;3.538;2023-05-07T12:59:32;2.75;;;1.50;;
47715;SDS011;33476;50.984;3.538;2023-05-07T13:01:57;2.05;;;0.50;;
47715;SDS011;33476;50.984;3.538;2023-05-07T13:04:24;1.20;;;0.60;;
47715;SDS011;33476;50.984;3.538;2023-05-07T13:06:50;2.00;;;0.60;;
47715;SDS011;33476;50.984;3.538;2023-05-07T13:09:15;1.85;;;0.47;;
47715;SDS011;33476;50.984;3.538;2023-05-07T13:11:40;1.10;;;0.40;;
47715;SDS011;33476;50.984;3.538;2023-05-07T13:14:06;0.88;;;0.43;;
47715;SDS011;33476;50.984;3.538;2023-05-07T13:16:31;3.17;;;0.60;;
47715;SDS011;33476;50.984;3.538;2023-05-07T13:18:56;1.70;;;0.73;;
47715;SDS011;33476;50.984;3.538;2023-05-07T13:21:22;2.00;;;0.63;;
47715;SDS011;33476;50.984;3.538;2023-05-07T13:23:47;2.50;;;0.60;;
47715;SDS011;33476;50.984;3.538;2023-05-07T13:26:12;3.90;;;1.00;;
47715;SDS011;33476;50.984;3.538;2023-05-07T13:28:38;1.75;;;0.65;;
47715;SDS011;33476;50.984;3.538;2023-05-07T13:31:03;2.58;;;0.60;;
47715;SDS011;33476;50.984;3.538;2023-05-07T13:33:28;1.33;;;0.68;;
47715;SDS011;33476;50.984;3.538;2023-05-07T13:35:54;3.33;;;0.90;;
47715;SDS011;33476;50.984;3.538;2023-05-07T13:38:21;6.25;;;3.05;;
47715;SDS011;33476;50.984;3.538;2023-05-07T13:40:47;7.43;;;2.88;;
47715;SDS011;33476;50.984;3.538;2023-05-07T13:43:12;7.03;;;3.45;;
47715;SDS011;33476;50.984;3.538;2023-05-07T13:45:38;7.30;;;3.38;;
47715;SDS011;33476;50.984;3.538;2023-05-07T13:48:03;4.45;;;3.47;;
47715;SDS011;33476;50.984;3.538;2023-05-07T13:50:29;6.88;;;3.30;;
47715;SDS011;33476;50.984;3.538;2023-05-07T13:52:55;9.25;;;4.05;;
47715;SDS011;33476;50.984;3.538;2023-05-07T13:55:21;7.80;;;4.22;;
47715;SDS011;33476;50.984;3.538;2023-05-07T13:57:48;10.20;;;4.28;;
47715;SDS011;33476;50.984;3.538;2023-05-07T14:00:20;9.15;;;4.25;;
47715;SDS011;33476;50.984;3.538;2023-05-07T14:02:46;6.63;;;4.40;;
47715;SDS011;33476;50.984;3.538;2023-05-07T14:05:11;6.80;;;3.88;;
47715;SDS011;33476;50.984;3.538;2023-05-07T14:07:38;7.47;;;4.80;;
47715;SDS011;33476;50.984;3.538;2023-05-07T14:10:03;6.35;;;4.38;;
47715;SDS011;33476;50.984;3.538;2023-05-07T14:12:29;9.93;;;4.45;;
47715;SDS011;33476;50.984;3.538;2023-05-07T14:14:56;5.47;;;4.07;;
47715;SDS011;33476;50.984;3.538;2023-05-07T14:17:21;6.93;;;4.57;;
47715;SDS011;33476;50.984;3.538;2023-05-07T14:19:50;8.50;;;4.50;;
47715;SDS011;33476;50.984;3.538;2023-05-07T14:22:15;9.15;;;5.30;;
47715;SDS011;33476;50.984;3.538;2023-05-07T14:24:40;10.20;;;4.20;;
47715;SDS011;33476;50.984;3.538;2023-05-07T14:27:06;6.95;;;4.40;;
47715;SDS011;33476;50.984;3.538;2023-05-07T14:29:31;10.63;;;3.80;;
47715;SDS011;33476;50.984;3.538;2023-05-07T14:31:57;6.03;;;4.45;;
47715;SDS011;33476;50.984;3.538;2023-05-07T14:34:22;12.63;;;4.72;;
47715;SDS011;33476;50.984;3.538;2023-05-07T14:36:48;10.20;;;4.70;;
47715;SDS011;33476;50.984;3.538;2023-05-07T14:39:13;9.23;;;5.30;;
47715;SDS011;33476;50.984;3.538;2023-05-07T14:41:38;8.80;;;4.90;;
47715;SDS011;33476;50.984;3.538;2023-05-07T14:44:04;8.75;;;4.18;;
47715;SDS011;33476;50.984;3.538;2023-05-07T14:46:30;5.93;;;3.53;;
47715;SDS011;33476;50.984;3.538;2023-05-07T14:48:56;4.32;;;3.25;;
47715;SDS011;33476;50.984;3.538;2023-05-07T14:51:22;8.15;;;3.65;;
47715;SDS011;33476;50.984;3.538;2023-05-07T14:53:48;11.35;;;5.18;;
47715;SDS011;33476;50.984;3.538;2023-05-07T14:56:15;12.20;;;4.70;;
47715;SDS011;33476;50.984;3.538;2023-05-07T14:58:40;7.03;;;3.95;;
47715;SDS011;33476;50.984;3.538;2023-05-07T15:01:06;4.15;;;3.25;;
47715;SDS011;33476;50.984;3.538;2023-05-07T15:03:31;4.55;;;3.33;;